Terminal Aerodrome Forecast
Issued by NWS

Current Version | Previous Version | Graphics & Text | Print | Product List | Glossary On
Versions: 1 2 3 4 5 6 7 8 9 10 11 12 13 14
000
FTUS41 KPBZ 291720
TAFHLG
TAF
KHLG 291720Z 2918/3018 19008KT P6SM SCT040
     FM292000 20008KT P6SM VCTS BKN040CB
     FM300000 20005KT P6SM BKN100
     FM301400 22005KT P6SM BKN100=

USA.gov is the U.S. government's official web portal to all federal, state and local government web resources and services.